Time;durP1;ratioP1;P1;durP2;ratioP2;P2;SDS_P1;SDS_P2;PMS_P1;PMS_P2;Temp;Humidity;BMP_temperature;BMP_pressure;BME280_temperature;BME280_humidity;BME280_pressure;Samples;Min_cycle;Max_cycle;Signal;HPM_P1;HPM_P2
2022/10/08 00:00:57;;;;;;;13.93;8.93;;;;;;;13.27;100.00;95879.22;5064353;28;20196;-78
2022/10/08 00:03:25;;;;;;;10.53;8.90;;;;;;;13.26;100.00;95878.41;5065637;28;20223;-78
2022/10/08 00:05:55;;;;;;;13.70;8.20;;;;;;;13.29;100.00;95870.25;5056849;28;20173;-78
2022/10/08 00:08:20;;;;;;;15.10;8.60;;;;;;;13.33;100.00;95863.75;5054644;28;20209;-78
2022/10/08 00:10:51;;;;;;;12.07;8.13;;;;;;;13.37;100.00;95860.84;5040915;28;20188;-78
2022/10/08 00:13:16;;;;;;;13.40;8.73;;;;;;;13.38;100.00;95867.69;5060984;28;20169;-78
2022/10/08 00:15:42;;;;;;;12.63;7.47;;;;;;;13.41;100.00;95872.59;5046447;28;20263;-78
2022/10/08 00:18:07;;;;;;;12.27;7.90;;;;;;;13.45;100.00;95871.31;5076949;28;20262;-78
2022/10/08 00:20:33;;;;;;;10.60;7.83;;;;;;;13.48;100.00;95873.59;5051748;28;20614;-77
2022/10/08 00:23:00;;;;;;;10.87;7.70;;;;;;;13.47;100.00;95877.19;5057556;28;20278;-78
2022/10/08 00:25:26;;;;;;;17.43;7.37;;;;;;;13.50;100.00;95869.03;5060667;28;20231;-78
2022/10/08 00:27:51;;;;;;;11.50;9.03;;;;;;;13.48;100.00;95868.38;5059480;28;20204;-78
2022/10/08 00:30:16;;;;;;;11.83;7.77;;;;;;;13.47;100.00;95869.34;5067397;28;20181;-78
2022/10/08 00:32:43;;;;;;;8.83;7.40;;;;;;;13.43;100.00;95866.25;5053461;28;20191;-78
2022/10/08 00:35:08;;;;;;;11.70;7.70;;;;;;;13.47;100.00;95866.75;5056137;28;20188;-78
2022/10/08 00:37:33;;;;;;;11.43;7.30;;;;;;;13.49;99.81;95859.56;5075595;28;20215;-78
2022/10/08 00:39:58;;;;;;;11.00;7.43;;;;;;;13.49;100.00;95863.00;5059236;28;20559;-78
2022/10/08 00:42:24;;;;;;;9.33;7.10;;;;;;;13.50;99.68;95858.59;5081737;28;20220;-78
2022/10/08 00:44:56;;;;;;;8.57;7.03;;;;;;;13.50;99.73;95862.03;5050826;28;20200;-78
2022/10/08 00:47:38;;;;;;;8.80;7.47;;;;;;;13.56;99.26;95858.78;5047810;28;20750;-77
2022/10/08 00:50:13;;;;;;;13.17;8.07;;;;;;;13.46;99.28;95852.88;5044630;28;20461;-78
2022/10/08 00:52:44;;;;;;;10.33;8.47;;;;;;;13.42;99.32;95856.78;5057549;28;20653;-79
2022/10/08 00:55:11;;;;;;;11.53;8.97;;;;;;;13.43;100.00;95852.38;5054085;28;20238;-78
2022/10/08 00:57:37;;;;;;;11.33;8.43;;;;;;;13.31;100.00;95855.25;5063155;28;20219;-78
2022/10/08 01:00:06;;;;;;;12.53;8.83;;;;;;;13.38;100.00;95844.22;5049467;28;20595;-77
2022/10/08 01:02:31;;;;;;;10.80;8.20;;;;;;;13.40;99.69;95855.31;5073901;28;20695;-78
2022/10/08 01:04:57;;;;;;;12.73;8.27;;;;;;;13.38;100.00;95846.81;5059125;28;20200;-78
2022/10/08 01:07:28;;;;;;;12.80;8.80;;;;;;;13.33;99.91;95836.84;5075889;28;20205;-78
2022/10/08 01:10:06;;;;;;;9.97;8.40;;;;;;;13.40;99.97;95837.03;5073051;28;20184;-78
2022/10/08 01:12:40;;;;;;;11.57;8.27;;;;;;;13.31;99.98;95846.63;5084526;28;20563;-78
2022/10/08 01:15:21;;;;;;;12.27;8.67;;;;;;;13.35;99.65;95845.34;5084218;28;20187;-78
2022/10/08 01:18:09;;;;;;;12.73;7.40;;;;;;;13.37;99.06;95848.63;5062694;28;20200;-78
2022/10/08 01:21:10;;;;;;;14.93;8.47;;;;;;;13.35;99.39;95840.13;5071978;28;20199;-78
2022/10/08 01:23:40;;;;;;;11.30;8.60;;;;;;;13.32;99.68;95841.25;5012610;28;20346;-78
2022/10/08 01:26:34;;;;;;;13.57;8.67;;;;;;;13.27;99.65;95846.13;5012301;28;20289;-77
2022/10/08 01:29:08;;;;;;;13.40;8.57;;;;;;;13.24;99.80;95841.22;5022806;28;20223;-77
2022/10/08 01:31:45;;;;;;;12.20;8.87;;;;;;;13.22;99.90;95843.16;5020305;28;20204;-77
2022/10/08 01:34:24;;;;;;;13.33;8.47;;;;;;;13.21;99.66;95843.31;5020351;28;20336;-77
2022/10/08 01:36:51;;;;;;;9.97;8.43;;;;;;;13.14;100.00;95844.88;5009279;28;20234;-78
2022/10/08 01:39:18;;;;;;;10.73;8.47;;;;;;;13.04;100.00;95847.63;4996052;28;20230;-78
2022/10/08 01:42:04;;;;;;;11.37;8.67;;;;;;;13.13;100.00;95836.25;4991695;28;20195;-78
2022/10/08 01:44:39;;;;;;;12.83;8.60;;;;;;;13.12;100.00;95837.22;4994784;28;20203;-78
2022/10/08 01:47:10;;;;;;;14.03;8.63;;;;;;;13.17;100.00;95823.75;4994949;28;20194;-78
2022/10/08 01:49:42;;;;;;;12.90;8.93;;;;;;;13.11;100.00;95835.59;4979017;28;20190;-78
2022/10/08 01:52:17;;;;;;;13.03;8.23;;;;;;;13.05;100.00;95831.81;4993946;28;20250;-78
2022/10/08 01:54:43;;;;;;;13.90;8.43;;;;;;;12.92;100.00;95835.84;4991549;28;20194;-78
2022/10/08 01:57:10;;;;;;;13.53;8.20;;;;;;;12.97;100.00;95833.56;4993337;28;20219;-78
2022/10/08 01:59:42;;;;;;;12.50;8.13;;;;;;;13.03;100.00;95838.97;5004139;28;20208;-78
2022/10/08 02:02:22;;;;;;;9.70;8.13;;;;;;;13.06;100.00;95832.63;5052955;28;20180;-78
2022/10/08 02:04:48;;;;;;;12.33;7.70;;;;;;;13.12;100.00;95841.63;5058246;28;20184;-78
2022/10/08 02:07:19;;;;;;;13.33;7.03;;;;;;;13.14;100.00;95827.44;5059238;28;20204;-78
2022/10/08 02:10:00;;;;;;;12.33;7.00;;;;;;;13.20;100.00;95824.25;5059210;28;20196;-78
2022/10/08 02:12:25;;;;;;;10.00;7.50;;;;;;;13.19;100.00;95827.00;5067464;28;20305;-79
2022/10/08 02:14:53;;;;;;;14.87;7.00;;;;;;;13.13;100.00;95828.44;5048554;28;20195;-79
2022/10/08 02:17:22;;;;;;;15.27;7.23;;;;;;;13.19;100.00;95825.22;5083196;28;20197;-78
2022/10/08 02:19:47;;;;;;;16.37;7.47;;;;;;;13.23;100.00;95829.16;5069095;28;20243;-79
2022/10/08 02:22:15;;;;;;;10.87;7.00;;;;;;;13.28;100.00;95836.53;5056089;28;20217;-78
2022/10/08 02:24:51;;;;;;;15.10;7.17;;;;;;;13.33;99.87;95829.84;5058285;28;20176;-78
2022/10/08 02:27:21;;;;;;;16.13;7.13;;;;;;;13.33;99.69;95832.44;5067569;28;20334;-78
2022/10/08 02:30:03;;;;;;;11.33;6.63;;;;;;;13.35;99.54;95821.88;5056414;28;20233;-78
2022/10/08 02:32:36;;;;;;;11.10;5.67;;;;;;;13.36;99.55;95833.13;5052438;28;20326;-78
2022/10/08 02:35:17;;;;;;;12.93;6.60;;;;;;;13.41;99.44;95818.63;5073062;28;20233;-78
2022/10/08 02:37:46;;;;;;;9.77;6.13;;;;;;;13.45;99.15;95826.97;5074187;28;20302;-78
2022/10/08 02:40:14;;;;;;;13.97;5.97;;;;;;;13.50;98.96;95837.72;5084091;28;20181;-78
2022/10/08 02:42:43;;;;;;;7.87;5.97;;;;;;;13.57;98.49;95825.69;5056713;28;20197;-78
2022/10/08 02:45:19;;;;;;;11.07;6.67;;;;;;;13.55;98.49;95832.84;5065576;28;20253;-78
2022/10/08 02:47:46;;;;;;;11.77;6.00;;;;;;;13.56;98.68;95837.09;5052670;28;20216;-79
2022/10/08 02:50:19;;;;;;;13.47;7.00;;;;;;;13.57;98.88;95834.31;5073188;28;20183;-78
2022/10/08 02:52:45;;;;;;;13.97;5.97;;;;;;;13.56;98.77;95835.31;5073136;28;20180;-78
2022/10/08 02:55:22;;;;;;;11.63;6.40;;;;;;;13.54;99.29;95836.44;5052846;28;20189;-78
2022/10/08 02:57:56;;;;;;;11.57;6.67;;;;;;;13.56;99.29;95837.91;5065799;28;20207;-78
2022/10/08 03:00:21;;;;;;;10.27;6.87;;;;;;;13.57;99.46;95830.91;5070908;28;20177;-78
2022/10/08 03:02:56;;;;;;;12.00;6.77;;;;;;;13.52;99.43;95835.78;5057588;28;20206;-78
2022/10/08 03:05:21;;;;;;;10.93;6.67;;;;;;;13.49;99.69;95843.91;5073834;28;20180;-78
2022/10/08 03:07:49;;;;;;;11.57;7.70;;;;;;;13.46;99.53;95845.06;5056809;28;20307;-78
2022/10/08 03:10:15;;;;;;;11.33;6.77;;;;;;;13.40;100.00;95840.47;5069136;28;20769;-78
2022/10/08 03:12:40;;;;;;;14.53;6.90;;;;;;;13.38;100.00;95846.81;5048822;28;20177;-78
2022/10/08 03:15:10;;;;;;;13.27;8.73;;;;;;;13.36;100.00;95849.59;5067402;28;20664;-78
2022/10/08 03:17:40;;;;;;;12.93;7.90;;;;;;;13.32;100.00;95850.88;5053134;28;20218;-78
2022/10/08 03:20:07;;;;;;;15.87;9.33;;;;;;;13.26;100.00;95843.69;5057310;28;20185;-78
2022/10/08 03:22:33;;;;;;;12.13;8.50;;;;;;;13.29;100.00;95846.78;5055790;28;20209;-78
2022/10/08 03:24:59;;;;;;;15.17;9.50;;;;;;;13.32;100.00;95853.47;5068434;28;20179;-77
2022/10/08 03:27:24;;;;;;;11.80;8.70;;;;;;;13.35;100.00;95847.97;5065842;28;20451;-78
2022/10/08 03:29:55;;;;;;;12.73;9.20;;;;;;;13.33;100.00;95844.66;5046385;28;20180;-78
2022/10/08 03:32:21;;;;;;;15.17;10.10;;;;;;;13.27;100.00;95856.56;5053816;28;20238;-78
2022/10/08 03:34:46;;;;;;;19.57;10.93;;;;;;;13.28;100.00;95862.59;5090412;28;20643;-77
2022/10/08 03:37:11;;;;;;;17.00;10.37;;;;;;;13.25;100.00;95855.91;5056095;28;20208;-78
2022/10/08 03:39:36;;;;;;;14.03;10.23;;;;;;;13.22;100.00;95863.22;5068696;28;20188;-77
2022/10/08 03:42:02;;;;;;;13.13;10.73;;;;;;;13.22;100.00;95864.03;5084451;28;20180;-78
2022/10/08 03:44:27;;;;;;;14.23;10.87;;;;;;;13.24;100.00;95867.28;5080241;28;20230;-78
2022/10/08 03:46:52;;;;;;;20.03;11.77;;;;;;;13.24;100.00;95869.91;5058590;28;20279;-77
2022/10/08 03:49:18;;;;;;;14.17;11.10;;;;;;;13.26;100.00;95865.38;5039234;28;20185;-78
2022/10/08 03:51:43;;;;;;;19.97;11.43;;;;;;;13.24;100.00;95864.69;5038818;28;20661;-77
2022/10/08 03:54:08;;;;;;;18.00;12.70;;;;;;;13.23;100.00;95873.47;5076975;28;20204;-78
2022/10/08 03:56:34;;;;;;;20.10;14.87;;;;;;;13.21;100.00;95883.25;5044737;28;20181;-78
2022/10/08 03:58:59;;;;;;;23.87;15.80;;;;;;;13.20;100.00;95886.03;5083853;28;20209;-78
2022/10/08 04:01:26;;;;;;;25.47;17.40;;;;;;;13.19;100.00;95880.00;5060864;28;20204;-79
2022/10/08 04:03:52;;;;;;;22.20;16.03;;;;;;;13.20;100.00;95886.84;5059037;28;20630;-78
2022/10/08 04:06:17;;;;;;;23.40;14.67;;;;;;;13.22;100.00;95882.28;5075587;28;20192;-78
2022/10/08 04:08:43;;;;;;;19.60;13.83;;;;;;;13.21;100.00;95888.47;5060144;28;20220;-78
2022/10/08 04:11:11;;;;;;;17.47;12.63;;;;;;;13.17;100.00;95891.53;5070277;28;20227;-79
2022/10/08 04:13:37;;;;;;;15.73;10.60;;;;;;;13.13;100.00;95885.78;5067062;28;20181;-77
2022/10/08 04:16:05;;;;;;;14.07;9.50;;;;;;;13.05;100.00;95885.75;5062728;28;20189;-78
2022/10/08 04:18:31;;;;;;;18.00;9.97;;;;;;;13.06;100.00;95892.59;5043409;28;20208;-78
2022/10/08 04:21:04;;;;;;;22.83;9.40;;;;;;;13.06;100.00;95895.19;5058380;28;20181;-78
2022/10/08 04:23:31;;;;;;;13.50;8.23;;;;;;;13.11;100.00;95897.34;5061214;28;20220;-77
2022/10/08 04:25:57;;;;;;;13.83;8.17;;;;;;;13.10;100.00;95888.72;5047349;28;20185;-78
2022/10/08 04:28:22;;;;;;;11.77;7.70;;;;;;;13.08;99.81;95892.47;5085836;28;20688;-77
2022/10/08 04:31:03;;;;;;;11.77;7.10;;;;;;;13.12;99.59;95904.19;5055152;28;20215;-78
2022/10/08 04:33:30;;;;;;;11.97;8.00;;;;;;;13.09;99.31;95910.56;5072523;28;20529;-78
2022/10/08 04:35:56;;;;;;;14.30;7.53;;;;;;;13.07;98.47;95902.03;5076060;28;20195;-79
2022/10/08 04:38:21;;;;;;;13.37;7.17;;;;;;;13.11;98.33;95903.38;5073365;28;20208;-79
2022/10/08 04:40:47;;;;;;;15.33;7.33;;;;;;;13.11;98.29;95905.19;5058688;28;20347;-79
2022/10/08 04:43:12;;;;;;;19.07;11.03;;;;;;;13.17;97.73;95902.78;5058963;28;20576;-79
2022/10/08 04:45:42;;;;;;;17.50;8.80;;;;;;;13.14;97.54;95899.66;5045896;28;20207;-80
2022/10/08 04:48:08;;;;;;;16.87;7.87;;;;;;;13.13;97.20;95901.44;5060210;28;20583;-80
2022/10/08 04:50:33;;;;;;;14.70;7.40;;;;;;;13.12;96.49;95907.63;5058114;28;20181;-79
2022/10/08 04:52:58;;;;;;;11.50;6.53;;;;;;;13.18;96.48;95907.03;5061559;28;20184;-79
2022/10/08 04:55:23;;;;;;;17.03;8.17;;;;;;;13.15;96.44;95909.91;5063573;28;20197;-78
2022/10/08 04:57:49;;;;;;;14.73;7.00;;;;;;;13.21;96.33;95909.34;5050183;28;20205;-79
2022/10/08 05:00:14;;;;;;;12.10;7.30;;;;;;;13.20;96.35;95907.72;5053285;28;20202;-79
2022/10/08 05:02:39;;;;;;;14.57;7.57;;;;;;;13.12;96.24;95906.81;5073607;28;20212;-78
2022/10/08 05:05:05;;;;;;;13.00;7.30;;;;;;;13.08;96.48;95911.53;5059708;28;20230;-79
2022/10/08 05:07:30;;;;;;;12.70;7.27;;;;;;;13.08;95.95;95908.09;5072347;28;20346;-79
2022/10/08 05:09:55;;;;;;;12.50;6.77;;;;;;;13.05;96.11;95912.63;5082967;28;20185;-79
2022/10/08 05:12:21;;;;;;;10.33;9.07;;;;;;;12.93;95.90;95913.88;5053080;28;20223;-79
2022/10/08 05:14:46;;;;;;;11.20;7.30;;;;;;;12.94;95.92;95904.25;5052713;28;20176;-79
2022/10/08 05:17:11;;;;;;;10.53;7.53;;;;;;;12.88;95.57;95913.50;5075795;28;20469;-79
2022/10/08 05:19:37;;;;;;;10.93;7.47;;;;;;;12.88;95.16;95913.50;5058860;28;20181;-79
2022/10/08 05:22:02;;;;;;;14.83;9.67;;;;;;;12.77;94.45;95921.56;5089511;28;20173;-79
2022/10/08 05:24:27;;;;;;;14.80;10.37;;;;;;;12.83;94.28;95915.75;5058902;28;20195;-79
2022/10/08 05:26:52;;;;;;;10.63;7.17;;;;;;;12.82;93.90;95918.53;5074933;28;20177;-79
2022/10/08 05:29:18;;;;;;;14.37;6.70;;;;;;;12.75;93.87;95921.72;5075862;28;20561;-80
2022/10/08 05:31:44;;;;;;;13.00;6.03;;;;;;;12.67;93.04;95916.44;5071949;28;20195;-79
2022/10/08 05:34:11;;;;;;;8.17;5.90;;;;;;;12.60;93.17;95912.81;5058525;28;20180;-79
2022/10/08 05:36:37;;;;;;;13.67;5.10;;;;;;;12.58;92.44;95919.97;5057550;28;20191;-79
2022/10/08 05:39:04;;;;;;;10.23;5.27;;;;;;;12.55;92.15;95922.06;5070147;28;20205;-79
2022/10/08 05:41:31;;;;;;;11.53;4.97;;;;;;;12.56;91.87;95916.69;5055182;28;20200;-79
2022/10/08 05:43:57;;;;;;;9.70;4.83;;;;;;;12.55;91.83;95927.28;5052641;28;20200;-78
2022/10/08 05:46:25;;;;;;;8.50;5.27;;;;;;;12.56;91.21;95932.34;5070163;28;20185;-79
2022/10/08 05:48:59;;;;;;;8.87;4.63;;;;;;;12.56;90.12;95934.94;5042880;28;20193;-79
2022/10/08 05:51:25;;;;;;;7.07;4.53;;;;;;;12.47;89.94;95925.41;5090037;28;20662;-80
2022/10/08 05:53:52;;;;;;;8.60;4.50;;;;;;;12.47;89.81;95935.84;5072967;28;20172;-79
2022/10/08 05:56:19;;;;;;;12.63;4.70;;;;;;;12.54;89.31;95939.44;5057973;28;20203;-79
2022/10/08 05:58:45;;;;;;;10.00;4.90;;;;;;;12.56;89.04;95937.53;5069707;28;20776;-79
2022/10/08 06:01:14;;;;;;;11.23;4.70;;;;;;;12.53;88.75;95935.22;5047268;28;20283;-80
2022/10/08 06:03:39;;;;;;;7.03;3.70;;;;;;;12.64;88.53;95937.59;5042635;28;20205;-79
2022/10/08 06:06:08;;;;;;;8.03;4.33;;;;;;;12.66;87.70;95935.66;5041047;28;20303;-80
2022/10/08 06:08:34;;;;;;;6.67;4.10;;;;;;;12.61;87.62;95935.28;5060331;28;20352;-81
2022/10/08 06:11:00;;;;;;;7.63;4.87;;;;;;;12.64;87.46;95937.59;5047558;28;20184;-80
2022/10/08 06:13:25;;;;;;;6.17;4.37;;;;;;;12.69;86.84;95950.97;5057293;28;20568;-80
2022/10/08 06:15:55;;;;;;;10.53;3.83;;;;;;;12.67;85.92;95947.72;5070364;28;20221;-80
2022/10/08 06:18:21;;;;;;;8.57;4.33;;;;;;;12.75;85.14;95947.78;5054936;28;20197;-81
2022/10/08 06:20:47;;;;;;;9.63;5.00;;;;;;;12.70;85.21;95951.81;5076825;28;20644;-79
2022/10/08 06:23:12;;;;;;;7.90;4.17;;;;;;;12.88;84.74;95957.81;5086867;28;20208;-77
2022/10/08 06:25:37;;;;;;;7.10;4.13;;;;;;;12.89;84.65;95963.84;5081601;28;20176;-77
2022/10/08 06:28:03;;;;;;;9.33;3.90;;;;;;;12.93;84.62;95967.78;5101442;28;20185;-77
2022/10/08 06:30:28;;;;;;;6.13;4.07;;;;;;;13.01;84.29;95967.84;5087583;28;20537;-78
2022/10/08 06:32:53;;;;;;;7.70;3.77;;;;;;;13.13;83.85;95963.19;5057672;28;20172;-79
2022/10/08 06:35:18;;;;;;;9.40;4.30;;;;;;;13.20;83.78;95970.28;5064825;28;20275;-77
2022/10/08 06:37:46;;;;;;;7.37;4.23;;;;;;;13.32;83.48;95969.06;5064311;28;20205;-78
2022/10/08 06:40:12;;;;;;;7.27;4.30;;;;;;;13.37;82.81;95978.22;5046434;28;20202;-79
2022/10/08 06:42:37;;;;;;;10.23;4.50;;;;;;;13.43;82.80;95982.81;5083631;28;20593;-78
2022/10/08 06:45:03;;;;;;;8.70;4.17;;;;;;;13.46;81.47;95982.50;5064263;28;20656;-79
2022/10/08 06:47:28;;;;;;;9.07;4.00;;;;;;;13.56;79.82;95984.03;5073201;28;20217;-79
2022/10/08 06:49:53;;;;;;;10.50;4.00;;;;;;;13.69;79.47;95990.59;5056339;28;20184;-79
2022/10/08 06:52:19;;;;;;;6.77;3.50;;;;;;;13.77;79.05;95988.03;5042280;28;20197;-79
2022/10/08 06:54:44;;;;;;;10.20;3.47;;;;;;;13.87;78.19;95989.56;5062374;28;20909;-79
2022/10/08 06:57:09;;;;;;;12.53;3.90;;;;;;;14.06;77.33;95993.72;5065978;28;20577;-78
2022/10/08 06:59:34;;;;;;;9.20;3.97;;;;;;;14.26;77.09;96004.72;5074223;28;20207;-79
2022/10/08 07:02:00;;;;;;;9.07;4.07;;;;;;;14.34;76.50;96001.31;5070141;28;20191;-80
2022/10/08 07:04:25;;;;;;;7.03;3.40;;;;;;;14.41;75.17;96000.50;5039219;28;20580;-79
2022/10/08 07:06:50;;;;;;;8.43;3.50;;;;;;;14.60;73.91;96006.47;5058560;28;20181;-80
2022/10/08 07:09:16;;;;;;;10.10;3.80;;;;;;;14.74;74.91;96008.41;5080532;28;20279;-80
2022/10/08 07:11:41;;;;;;;7.70;3.77;;;;;;;14.75;73.56;96002.22;5065203;28;20572;-79
2022/10/08 07:14:06;;;;;;;8.87;3.80;;;;;;;14.70;72.22;96007.94;5051710;28;20184;-80
2022/10/08 07:16:32;;;;;;;9.53;4.07;;;;;;;14.66;72.13;96008.41;5071968;28;20713;-80
2022/10/08 07:18:57;;;;;;;9.48;3.72;;;;;;;14.84;71.55;96009.09;5072080;28;20205;-80
2022/10/08 07:21:23;;;;;;;10.87;4.40;;;;;;;14.69;71.04;96021.16;5070691;28;20230;-80
2022/10/08 07:23:48;;;;;;;7.87;3.30;;;;;;;14.83;69.54;96033.59;5047704;28;20209;-80
2022/10/08 07:26:19;;;;;;;10.23;3.70;;;;;;;14.82;70.10;96037.19;5046348;28;20263;-79
2022/10/08 07:28:50;;;;;;;7.20;3.15;;;;;;;14.58;67.42;96034.56;5066661;28;20204;-78
2022/10/08 07:31:18;;;;;;;11.00;3.67;;;;;;;14.64;66.74;96032.09;5070718;28;20572;-80
2022/10/08 07:33:43;;;;;;;6.50;3.33;;;;;;;14.73;64.98;96038.16;5057084;28;20663;-77
2022/10/08 07:36:10;;;;;;;7.53;2.77;;;;;;;14.57;64.58;96033.72;5073483;28;20177;-79
2022/10/08 07:38:36;;;;;;;12.18;3.20;;;;;;;14.76;63.01;96042.25;5070822;28;20200;-78
2022/10/08 07:41:02;;;;;;;7.68;3.00;;;;;;;14.68;63.97;96040.44;5066859;28;20176;-78
2022/10/08 07:43:27;;;;;;;12.57;3.37;;;;;;;14.87;64.37;96052.41;5088315;28;20197;-80
2022/10/08 07:45:53;;;;;;;8.63;2.90;;;;;;;14.89;64.09;96059.09;5059929;28;20183;-78
2022/10/08 07:48:18;;;;;;;5.70;2.83;;;;;;;14.56;64.60;96050.38;5076992;28;20277;-78
2022/10/08 07:50:44;;;;;;;12.83;3.10;;;;;;;14.67;63.25;96054.50;5093030;28;20180;-79
2022/10/08 07:53:09;;;;;;;9.30;3.10;;;;;;;14.56;64.67;96054.78;5071691;28;20636;-78
2022/10/08 07:55:34;;;;;;;8.20;3.40;;;;;;;14.53;63.98;96058.53;5058083;28;20706;-79
2022/10/08 07:58:00;;;;;;;6.67;2.73;;;;;;;14.85;64.60;96063.03;5075295;28;20212;-79
2022/10/08 08:00:25;;;;;;;12.30;3.17;;;;;;;15.04;63.56;96064.50;5062061;28;20181;-79
2022/10/08 08:02:50;;;;;;;8.35;3.13;;;;;;;15.17;65.18;96054.38;5043753;28;20343;-79
2022/10/08 08:05:16;;;;;;;7.57;2.90;;;;;;;15.18;65.63;96056.00;5061117;28;20208;-79
2022/10/08 08:07:41;;;;;;;8.82;3.53;;;;;;;15.12;65.45;96066.31;5064976;28;20894;-80
2022/10/08 08:10:07;;;;;;;7.28;2.95;;;;;;;15.39;66.04;96059.94;5086132;28;20267;-79
2022/10/08 08:12:32;;;;;;;7.80;3.03;;;;;;;15.54;65.49;96059.09;5089945;28;20180;-79
2022/10/08 08:14:57;;;;;;;13.93;3.10;;;;;;;15.50;63.33;96068.25;5093518;28;20210;-79
2022/10/08 08:17:23;;;;;;;10.73;2.78;;;;;;;15.45;62.48;96070.56;5079458;28;20253;-79
2022/10/08 08:19:48;;;;;;;10.68;2.78;;;;;;;15.58;61.05;96068.25;5077882;28;20200;-78
2022/10/08 08:22:13;;;;;;;8.35;2.92;;;;;;;15.57;60.55;96071.03;5057111;28;20191;-79
2022/10/08 08:24:38;;;;;;;8.65;2.92;;;;;;;15.52;59.32;96073.34;5054602;28;20219;-80
2022/10/08 08:27:04;;;;;;;8.50;2.75;;;;;;;15.69;59.52;96079.41;5068756;28;20188;-79
2022/10/08 08:29:30;;;;;;;10.70;3.60;;;;;;;15.67;59.64;96079.56;5071929;28;20184;-80
2022/10/08 08:31:55;;;;;;;11.82;2.83;;;;;;;15.46;59.43;96079.22;5060195;28;20305;-77
2022/10/08 08:34:23;;;;;;;12.00;2.70;;;;;;;15.33;58.40;96084.16;5073442;28;20622;-78
2022/10/08 08:36:50;;;;;;;9.57;3.10;;;;;;;15.14;58.28;96085.28;5058442;28;20563;-80
2022/10/08 08:39:16;;;;;;;14.00;2.92;;;;;;;15.20;58.01;96082.03;5067652;28;20284;-80
2022/10/08 08:42:00;;;;;;;15.88;2.78;;;;;;;15.09;57.64;96084.94;5063598;28;20188;-79
2022/10/08 08:44:32;;;;;;;11.75;2.90;;;;;;;15.16;56.30;96080.69;5061524;28;20197;-80
2022/10/08 08:47:00;;;;;;;12.52;3.00;;;;;;;15.06;56.85;96077.44;5053989;28;20189;-80
2022/10/08 08:49:32;;;;;;;6.95;2.70;;;;;;;15.01;56.32;96090.97;5059116;28;20180;-79
2022/10/08 08:51:59;;;;;;;10.32;3.05;;;;;;;14.86;58.16;96090.81;5054950;28;20264;-82
2022/10/08 08:54:24;;;;;;;11.23;2.80;;;;;;;14.91;57.96;96090.31;5048901;28;20184;-79
2022/10/08 08:56:51;;;;;;;7.93;2.55;;;;;;;15.01;58.08;96091.78;5068126;28;20192;-80
2022/10/08 08:59:20;;;;;;;6.60;2.65;;;;;;;15.01;58.74;96086.56;5061856;28;20334;-78
2022/10/08 09:01:47;;;;;;;7.40;2.43;;;;;;;14.92;57.85;96090.16;5057127;28;20199;-81
2022/10/08 09:04:35;;;;;;;8.73;2.50;;;;;;;14.84;57.85;96092.78;5042217;28;20228;-80
2022/10/08 09:07:03;;;;;;;10.90;2.60;;;;;;;15.07;58.36;96092.94;5072853;28;20201;-79
2022/10/08 09:09:35;;;;;;;10.20;2.42;;;;;;;15.19;57.55;96096.06;5058538;28;20659;-78
2022/10/08 09:12:09;;;;;;;8.73;2.50;;;;;;;15.47;58.04;96104.44;5069981;28;20640;-79
2022/10/08 09:14:39;;;;;;;11.48;2.42;;;;;;;15.35;57.12;96108.34;5055042;28;20216;-77
2022/10/08 09:17:14;;;;;;;10.48;2.30;;;;;;;15.34;56.66;96097.06;5040272;28;20270;-79
2022/10/08 09:19:40;;;;;;;8.18;2.20;;;;;;;15.48;56.43;96099.03;5066706;28;20192;-77
2022/10/08 09:22:20;;;;;;;12.13;2.80;;;;;;;15.45;54.01;96101.97;5064346;28;20550;-77
2022/10/08 09:24:50;;;;;;;8.85;2.63;;;;;;;15.73;55.35;96107.72;5066159;28;20219;-79
2022/10/08 09:27:15;;;;;;;11.13;2.90;;;;;;;15.72;55.65;96111.28;5054880;28;20283;-77
2022/10/08 09:29:40;;;;;;;10.27;2.25;;;;;;;15.66;55.83;96108.53;5070306;28;20601;-78
2022/10/08 09:32:14;;;;;;;9.20;2.70;;;;;;;15.51;55.61;96106.53;5057085;28;20581;-78
2022/10/08 09:34:39;;;;;;;5.47;2.03;;;;;;;15.44;56.77;96115.22;5040650;28;20187;-79
2022/10/08 09:37:05;;;;;;;11.98;2.70;;;;;;;15.51;56.42;96116.19;5051451;28;20476;-80
2022/10/08 09:39:33;;;;;;;11.43;2.40;;;;;;;15.37;57.05;96120.31;5047039;28;20192;-78
2022/10/08 09:42:18;;;;;;;12.50;2.70;;;;;;;15.33;55.99;96123.38;5061110;28;20176;-79
2022/10/08 09:44:45;;;;;;;8.52;2.63;;;;;;;14.98;56.00;96117.47;5040026;28;20204;-78
2022/10/08 09:47:16;;;;;;;14.35;2.60;;;;;;;15.40;56.59;96121.75;5059879;28;20578;-79
2022/10/08 09:49:41;;;;;;;11.18;3.03;;;;;;;15.38;56.66;96121.94;5069405;28;20234;-79
2022/10/08 09:52:14;;;;;;;9.35;3.00;;;;;;;15.60;55.08;96120.44;5063039;28;20185;-79
2022/10/08 09:54:47;;;;;;;9.10;2.38;;;;;;;15.49;55.51;96111.13;5062659;28;20324;-78
2022/10/08 09:57:15;;;;;;;9.77;3.13;;;;;;;15.66;54.83;96119.00;5061099;28;20423;-79
2022/10/08 09:59:48;;;;;;;6.40;2.08;;;;;;;15.83;53.73;96120.63;5057983;28;20264;-78
2022/10/08 10:02:34;;;;;;;10.25;2.55;;;;;;;15.79;53.34;96124.53;5069617;28;20188;-77
2022/10/08 10:05:02;;;;;;;9.55;2.30;;;;;;;15.74;54.59;96127.69;5050138;28;20555;-78
2022/10/08 10:07:40;;;;;;;12.15;2.83;;;;;;;15.72;54.78;96118.31;5067078;28;20254;-79
2022/10/08 10:10:15;;;;;;;7.82;2.22;;;;;;;15.53;55.44;96125.50;5071337;28;20275;-79
2022/10/08 10:12:42;;;;;;;14.48;2.83;;;;;;;15.31;55.63;96120.94;5068335;28;20655;-79
2022/10/08 10:15:07;;;;;;;9.70;2.60;;;;;;;15.23;55.08;96132.22;5040182;28;20635;-79
2022/10/08 10:17:54;;;;;;;12.25;3.00;;;;;;;15.14;55.94;96133.19;5070090;28;20303;-79
2022/10/08 10:20:45;;;;;;;6.28;1.90;;;;;;;15.28;55.24;96136.94;5050101;28;20192;-79
2022/10/08 10:23:14;;;;;;;7.97;2.00;;;;;;;15.33;56.21;96137.28;5046036;28;20209;-79
2022/10/08 10:25:56;;;;;;;6.43;2.22;;;;;;;15.50;56.80;96136.31;5063556;28;20574;-78
2022/10/08 10:28:23;;;;;;;11.63;2.85;;;;;;;15.36;54.87;96131.72;5054571;28;20201;-78
2022/10/08 10:31:02;;;;;;;8.93;2.28;;;;;;;15.42;54.84;96133.69;5073007;28;20241;-78
2022/10/08 10:33:31;;;;;;;9.70;2.47;;;;;;;15.26;56.26;96126.66;5040187;28;20527;-81
2022/10/08 10:35:59;;;;;;;7.38;2.45;;;;;;;15.43;55.52;96130.09;5048645;28;20172;-80
2022/10/08 10:38:29;;;;;;;9.95;2.40;;;;;;;15.37;55.08;96132.53;5065139;28;20621;-80
2022/10/08 10:41:07;;;;;;;10.80;3.10;;;;;;;15.24;56.50;96127.81;5055566;28;20180;-81
2022/10/08 10:43:53;;;;;;;9.50;2.30;;;;;;;15.38;56.53;96135.03;5058341;28;20203;-80
2022/10/08 10:46:48;;;;;;;11.57;2.55;;;;;;;15.44;56.01;96141.38;5071453;28;20725;-80
2022/10/08 10:49:20;;;;;;;7.85;2.60;;;;;;;15.57;57.04;96126.84;5057697;28;20634;-80
2022/10/08 10:52:23;;;;;;;9.32;2.40;;;;;;;15.46;55.80;96135.03;5081758;28;20275;-80
2022/10/08 10:55:19;;;;;;;7.65;2.17;;;;;;;15.34;56.21;96131.06;5081078;28;20223;-81
2022/10/08 10:58:03;;;;;;;8.93;2.50;;;;;;;15.36;57.34;96138.75;5076943;28;20238;-82
2022/10/08 11:00:47;;;;;;;8.20;2.63;;;;;;;15.40;56.51;96135.66;5067386;28;20236;-81
2022/10/08 11:03:22;;;;;;;5.65;2.13;;;;;;;15.16;56.63;96136.44;5057812;28;20208;-81
2022/10/08 11:05:55;;;;;;;7.53;2.05;;;;;;;15.35;56.15;96148.41;5060423;28;21031;-80
2022/10/08 11:08:34;;;;;;;8.48;2.25;;;;;;;15.32;56.80;96140.91;5065066;28;20205;-81
2022/10/08 11:11:22;;;;;;;10.52;2.70;;;;;;;15.37;56.96;96138.63;5056647;28;20249;-80
2022/10/08 11:14:07;;;;;;;7.90;2.05;;;;;;;15.34;56.63;96140.72;5074753;28;20176;-80
2022/10/08 11:16:57;;;;;;;5.38;2.20;;;;;;;15.59;56.64;96145.81;5073388;28;20194;-80
2022/10/08 11:19:47;;;;;;;8.75;2.88;;;;;;;15.51;55.14;96140.56;5057129;28;20193;-81
2022/10/08 11:22:53;;;;;;;7.25;2.17;;;;;;;15.74;57.23;96134.72;5080833;28;20183;-81
2022/10/08 11:25:22;;;;;;;5.25;2.30;;;;;;;15.52;56.78;96134.34;5050706;28;20204;-80
2022/10/08 11:28:00;;;;;;;11.70;2.70;;;;;;;15.58;58.02;96135.50;5058377;28;20200;-82
2022/10/08 11:31:03;;;;;;;6.60;2.38;;;;;;;15.85;57.04;96134.38;5038914;28;20687;-80
2022/10/08 11:33:29;;;;;;;7.80;2.20;;;;;;;16.07;55.71;96138.09;5076039;28;20636;-79
2022/10/08 11:36:15;;;;;;;4.65;2.13;;;;;;;16.36;56.12;96138.34;5060376;28;20191;-80
2022/10/08 11:38:51;;;;;;;6.30;1.80;;;;;;;16.40;55.75;96136.19;5064601;28;20261;-82